Time;durP1;ratioP1;P1;durP2;ratioP2;P2;SDS_P1;SDS_P2;PMS_P1;PMS_P2;Temp;Humidity;BMP_temperature;BMP_pressure;BME280_temperature;BME280_humidity;BME280_pressure;Samples;Min_cycle;Max_cycle;Signal;HPM_P1;HPM_P2
2022/06/10 00:03:06;;;;;;;6.87;4.30;;;;;;;;;;6206473;28;20232;-71
2022/06/10 00:06:29;;;;;;;9.43;4.73;;;;;;;;;;6222282;28;20232;-71
2022/06/10 00:09:49;;;;;;;5.47;3.50;;;;;;;;;;6220444;28;20240;-70
2022/06/10 00:13:10;;;;;;;9.87;5.30;;;;;;;;;;6218311;28;20550;-71
2022/06/10 00:16:31;;;;;;;8.27;4.63;;;;;;;;;;6198921;28;20225;-70
2022/06/10 00:19:52;;;;;;;8.37;4.43;;;;;;;;;;6220700;28;20240;-70
2022/06/10 00:23:14;;;;;;;8.73;4.43;;;;;;;;;;6217785;28;20874;-71
2022/06/10 00:26:35;;;;;;;9.77;4.50;;;;;;;;;;6220994;28;20216;-70
2022/06/10 00:29:56;;;;;;;12.23;4.73;;;;;;;;;;6207161;28;20233;-71
2022/06/10 00:33:17;;;;;;;9.83;4.70;;;;;;;;;;6221867;28;20225;-71
2022/06/10 00:36:38;;;;;;;6.97;4.17;;;;;;;;;;6218073;28;20579;-72
2022/06/10 00:39:59;;;;;;;4.80;3.60;;;;;;;;;;6215127;28;20228;-71
2022/06/10 00:43:22;;;;;;;5.47;3.83;;;;;;;;;;6222494;28;20676;-71
2022/06/10 00:46:44;;;;;;;13.03;4.97;;;;;;;;;;6219337;28;20228;-71
2022/06/10 00:50:14;;;;;;;10.53;5.10;;;;;;;;;;6215798;28;20229;-71
2022/06/10 00:53:36;;;;;;;6.80;4.83;;;;;;;;;;6216557;28;20233;-72
2022/06/10 00:57:00;;;;;;;7.47;5.20;;;;;;;;;;6217755;28;20228;-72
2022/06/10 01:00:22;;;;;;;9.03;5.23;;;;;;;;;;6222502;28;20723;-70
2022/06/10 01:03:44;;;;;;;8.83;5.10;;;;;;;;;;6219681;28;20645;-71
2022/06/10 01:07:05;;;;;;;13.73;6.00;;;;;;;;;;6216264;28;20886;-70
2022/06/10 01:10:27;;;;;;;5.87;4.23;;;;;;;;;;6217124;28;20657;-71
2022/06/10 01:13:52;;;;;;;12.57;4.90;;;;;;;;;;6217135;28;20221;-70
2022/06/10 01:17:18;;;;;;;8.17;5.00;;;;;;;;;;6219427;28;20228;-71
2022/06/10 01:20:44;;;;;;;8.00;4.90;;;;;;;;;;6215373;28;20512;-70
2022/06/10 01:24:28;;;;;;;12.00;6.23;;;;;;;;;;6226429;28;20232;-69
2022/06/10 01:27:55;;;;;;;10.00;5.10;;;;;;;;;;6213574;28;20236;-72
2022/06/10 01:31:22;;;;;;;5.47;4.07;;;;;;;;;;6224567;28;20248;-72
2022/06/10 01:34:48;;;;;;;10.07;5.10;;;;;;;;;;6220122;28;21828;-71
2022/06/10 01:38:13;;;;;;;10.60;4.80;;;;;;;;;;6221015;28;20228;-71
2022/06/10 01:41:40;;;;;;;8.00;4.47;;;;;;;;;;6222559;28;20225;-71
2022/06/10 01:45:07;;;;;;;10.13;5.17;;;;;;;;;;6228245;28;20240;-70
2022/06/10 01:48:32;;;;;;;13.43;5.60;;;;;;;;;;6221860;28;20232;-70
2022/06/10 01:51:58;;;;;;;10.17;5.07;;;;;;;;;;6225717;28;20256;-70
2022/06/10 01:55:21;;;;;;;10.30;5.87;;;;;;;;;;6226420;28;20228;-71
2022/06/10 01:58:44;;;;;;;7.80;5.73;;;;;;;;;;6229153;28;20224;-71
2022/06/10 02:02:07;;;;;;;7.70;5.27;;;;;;;;;;6225117;28;20232;-71
2022/06/10 02:05:31;;;;;;;8.07;5.80;;;;;;;;;;6222869;28;20641;-70
2022/06/10 02:08:53;;;;;;;7.40;4.63;;;;;;;;;;6223081;28;20236;-70
2022/06/10 02:12:16;;;;;;;7.90;5.67;;;;;;;;;;6224951;28;20618;-72
2022/06/10 02:15:38;;;;;;;12.40;5.80;;;;;;;;;;6222849;28;20237;-71
2022/06/10 02:19:01;;;;;;;9.20;4.60;;;;;;;;;;6224158;28;20573;-71
2022/06/10 02:22:25;;;;;;;7.13;4.77;;;;;;;;;;6220668;28;20229;-72
2022/06/10 02:25:49;;;;;;;7.13;5.90;;;;;;;;;;6222074;28;20236;-71
2022/06/10 02:29:11;;;;;;;5.40;4.73;;;;;;;;;;6224140;28;20241;-71
2022/06/10 02:32:32;;;;;;;8.87;4.90;;;;;;;;;;6223392;28;20228;-70
2022/06/10 02:35:57;;;;;;;9.67;5.10;;;;;;;;;;6220026;28;20823;-70
2022/06/10 02:39:22;;;;;;;12.37;6.30;;;;;;;;;;6221429;28;20320;-70
2022/06/10 02:42:46;;;;;;;8.90;5.40;;;;;;;;;;6218619;28;20224;-70
2022/06/10 02:46:08;;;;;;;10.40;6.83;;;;;;;;;;6219678;28;20552;-71
2022/06/10 02:49:29;;;;;;;10.33;5.67;;;;;;;;;;6220362;28;20347;-71
2022/06/10 02:52:50;;;;;;;10.00;7.23;;;;;;;;;;6222491;28;20240;-70
2022/06/10 02:56:17;;;;;;;12.77;6.53;;;;;;;;;;6221801;28;20324;-71
2022/06/10 03:03:19;;;;;;;15.77;13.10;;;;;;;;;;6223577;28;20228;-72
2022/06/10 03:06:45;;;;;;;16.63;14.13;;;;;;;;;;6224323;28;21976;-71
2022/06/10 03:10:12;;;;;;;8.10;7.23;;;;;;;;;;6221187;28;20216;-71
2022/06/10 03:13:42;;;;;;;10.10;6.37;;;;;;;;;;6219993;28;22745;-72
2022/06/10 03:17:10;;;;;;;9.27;7.27;;;;;;;;;;6219788;28;20233;-71
2022/06/10 03:20:35;;;;;;;11.37;6.73;;;;;;;;;;6220785;28;20327;-71
2022/06/10 03:24:02;;;;;;;9.33;6.53;;;;;;;;;;6220289;28;20595;-71
2022/06/10 03:27:27;;;;;;;10.03;6.67;;;;;;;;;;6221294;28;20264;-69
2022/06/10 03:30:52;;;;;;;8.83;6.50;;;;;;;;;;6222028;28;20260;-70
2022/06/10 03:34:15;;;;;;;9.60;6.33;;;;;;;;;;6220283;28;20241;-71
2022/06/10 03:37:36;;;;;;;10.80;6.47;;;;;;;;;;6221780;28;20289;-70
2022/06/10 03:40:59;;;;;;;7.77;6.00;;;;;;;;;;6220978;28;20218;-70
2022/06/10 03:44:21;;;;;;;8.37;6.37;;;;;;;;;;6220030;28;20236;-71
2022/06/10 03:47:43;;;;;;;10.67;6.10;;;;;;;;;;6224801;28;20314;-71
2022/06/10 03:51:04;;;;;;;11.07;7.13;;;;;;;;;;6220754;28;20237;-72
2022/06/10 03:54:26;;;;;;;11.53;7.13;;;;;;;;;;6224708;28;20970;-70
2022/06/10 03:57:47;;;;;;;9.63;6.00;;;;;;;;;;6221893;28;20229;-70
2022/06/10 04:01:08;;;;;;;9.50;6.13;;;;;;;;;;6221802;28;20221;-71
2022/06/10 04:04:29;;;;;;;11.93;6.00;;;;;;;;;;6221188;28;20252;-71
2022/06/10 04:07:50;;;;;;;10.00;6.30;;;;;;;;;;6219425;28;20229;-70
2022/06/10 04:11:10;;;;;;;7.83;6.40;;;;;;;;;;6222783;28;20225;-70
2022/06/10 04:14:31;;;;;;;13.87;6.00;;;;;;;;;;6219702;28;20221;-70
2022/06/10 04:17:52;;;;;;;7.13;5.20;;;;;;;;;;6220680;28;20236;-70
2022/06/10 04:21:13;;;;;;;7.33;5.17;;;;;;;;;;6221276;28;20233;-70
2022/06/10 04:24:34;;;;;;;8.87;4.97;;;;;;;;;;6217503;28;20227;-69
2022/06/10 04:27:55;;;;;;;10.93;6.50;;;;;;;;;;6225640;28;20220;-70
2022/06/10 04:31:15;;;;;;;11.23;5.80;;;;;;;;;;6221929;28;20216;-71
2022/06/10 04:34:37;;;;;;;7.00;6.27;;;;;;;;;;6209805;28;20272;-70
2022/06/10 04:37:59;;;;;;;16.33;7.77;;;;;;;;;;6218547;28;20233;-70
2022/06/10 04:41:19;;;;;;;6.00;5.40;;;;;;;;;;6217191;28;20709;-70
2022/06/10 04:44:40;;;;;;;9.47;6.23;;;;;;;;;;6214397;28;20225;-69
2022/06/10 04:48:00;;;;;;;9.73;5.87;;;;;;;;;;6197023;28;20220;-71
2022/06/10 04:51:21;;;;;;;9.20;6.57;;;;;;;;;;6215598;28;20811;-70
2022/06/10 04:54:43;;;;;;;9.93;5.33;;;;;;;;;;6217489;28;21013;-70
2022/06/10 04:58:04;;;;;;;8.27;5.77;;;;;;;;;;6220155;28;20332;-71
2022/06/10 05:01:24;;;;;;;10.53;5.77;;;;;;;;;;6217803;28;20253;-70
2022/06/10 05:04:45;;;;;;;13.27;5.17;;;;;;;;;;6202839;28;21940;-69
2022/06/10 05:08:06;;;;;;;8.63;5.60;;;;;;;;;;6212614;28;20260;-71
2022/06/10 05:11:28;;;;;;;8.57;4.23;;;;;;;;;;6212767;28;20248;-70
2022/06/10 05:14:48;;;;;;;8.80;5.13;;;;;;;;;;6216636;28;21189;-70
2022/06/10 05:18:11;;;;;;;8.97;5.83;;;;;;;;;;6220428;28;20220;-70
2022/06/10 05:21:31;;;;;;;8.53;5.83;;;;;;;;;;6215549;28;20232;-69
2022/06/10 05:24:52;;;;;;;10.40;4.00;;;;;;;;;;6221177;28;20307;-69
2022/06/10 05:28:14;;;;;;;9.17;4.23;;;;;;;;;;6220996;28;20228;-69
2022/06/10 05:31:35;;;;;;;9.40;4.73;;;;;;;;;;6193478;28;20265;-71
2022/06/10 05:34:56;;;;;;;10.03;4.20;;;;;;;;;;6214506;28;20629;-71
2022/06/10 05:38:16;;;;;;;7.20;4.03;;;;;;;;;;6218000;28;20228;-71
2022/06/10 05:45:17;;;;;;;5.63;3.03;;;;;;;;;;6220922;28;20878;-71
2022/06/10 05:48:38;;;;;;;10.40;3.60;;;;;;;;;;6216919;28;20237;-71
2022/06/10 05:51:58;;;;;;;7.23;3.67;;;;;;;;;;6222361;28;20228;-70
2022/06/10 05:55:19;;;;;;;7.30;3.37;;;;;;;;;;6221227;28;20237;-72
2022/06/10 05:58:40;;;;;;;10.90;5.10;;;;;;;;;;6218135;28;20228;-69
2022/06/10 06:02:03;;;;;;;12.57;5.10;;;;;;;;;;6220845;28;20345;-71
2022/06/10 06:05:24;;;;;;;8.17;3.10;;;;;;;;;;6215434;28;20316;-75
2022/06/10 06:08:46;;;;;;;6.50;2.83;;;;;;;;;;6205118;28;20232;-75
2022/06/10 06:12:07;;;;;;;6.63;3.47;;;;;;;;;;6216486;28;20228;-74
2022/06/10 06:15:27;;;;;;;9.00;3.57;;;;;;;;;;6220064;28;20625;-69
2022/06/10 06:18:50;;;;;;;5.50;2.40;;;;;;;;;;6224987;28;20229;-69
2022/06/10 06:22:11;;;;;;;10.50;4.00;;;;;;;;;;6221075;28;20569;-68
2022/06/10 06:25:32;;;;;;;6.23;2.37;;;;;;;;;;6219232;28;20634;-67
2022/06/10 06:28:52;;;;;;;9.23;2.53;;;;;;;;;;6209687;28;20233;-67
2022/06/10 06:32:13;;;;;;;6.37;2.97;;;;;;;;;;6218956;28;20225;-68
2022/06/10 06:35:36;;;;;;;7.80;3.33;;;;;;;;;;6216511;28;20237;-68
2022/06/10 06:38:57;;;;;;;4.90;2.70;;;;;;;;;;6224024;28;20496;-68
2022/06/10 06:42:17;;;;;;;4.37;1.90;;;;;;;;;;6220602;28;20229;-67
2022/06/10 06:45:50;;;;;;;6.30;3.10;;;;;;;;;;6208033;28;20551;-68
2022/06/10 06:49:13;;;;;;;10.73;2.53;;;;;;;;;;6211251;28;20233;-68
2022/06/10 06:52:35;;;;;;;5.87;3.17;;;;;;;;;;6218938;28;20259;-69
2022/06/10 06:55:58;;;;;;;8.47;2.57;;;;;;;;;;6226064;28;20236;-68
2022/06/10 06:59:18;;;;;;;5.85;2.00;;;;;;;;;;6216864;28;20221;-68
2022/06/10 07:02:39;;;;;;;3.67;2.03;;;;;;;;;;6217851;28;20236;-67
2022/06/10 07:05:59;;;;;;;6.13;2.47;;;;;;;;;;6219260;28;20646;-69
2022/06/10 07:09:21;;;;;;;5.43;2.05;;;;;;;;;;6219477;28;20579;-68
2022/06/10 07:12:42;;;;;;;3.80;2.33;;;;;;;;;;6224196;28;20301;-69
2022/06/10 07:16:03;;;;;;;5.57;2.60;;;;;;;;;;6215987;28;20233;-69
2022/06/10 07:19:24;;;;;;;5.05;2.08;;;;;;;;;;6218034;28;20771;-70
2022/06/10 07:22:44;;;;;;;6.18;2.80;;;;;;;;;;6227043;28;20232;-68
2022/06/10 07:26:06;;;;;;;6.45;2.92;;;;;;;;;;6219205;28;20224;-70
2022/06/10 07:29:27;;;;;;;3.42;1.63;;;;;;;;;;6221002;28;20232;-70
2022/06/10 07:32:47;;;;;;;4.97;1.83;;;;;;;;;;6212593;28;20319;-69
2022/06/10 07:36:10;;;;;;;6.60;2.10;;;;;;;;;;6208612;28;20240;-67
2022/06/10 07:39:32;;;;;;;4.75;1.55;;;;;;;;;;6222284;28;20630;-68
2022/06/10 07:42:52;;;;;;;4.90;2.25;;;;;;;;;;6226147;28;20235;-69
2022/06/10 07:46:15;;;;;;;7.97;3.25;;;;;;;;;;6224932;28;20221;-68
2022/06/10 07:49:36;;;;;;;6.70;2.15;;;;;;;;;;6224432;28;20252;-68
2022/06/10 07:52:57;;;;;;;4.43;1.95;;;;;;;;;;6219690;28;20232;-69
2022/06/10 07:56:18;;;;;;;1.92;1.48;;;;;;;;;;6215456;28;20232;-69
2022/06/10 07:59:42;;;;;;;5.05;2.13;;;;;;;;;;6221096;28;20220;-69
2022/06/10 08:03:02;;;;;;;8.15;1.90;;;;;;;;;;6221091;28;20233;-68
2022/06/10 08:06:24;;;;;;;5.15;1.98;;;;;;;;;;6223559;28;20550;-70
2022/06/10 08:09:45;;;;;;;8.00;2.20;;;;;;;;;;6219824;28;20229;-71
2022/06/10 08:13:06;;;;;;;3.60;1.90;;;;;;;;;;6223161;28;20247;-70
2022/06/10 08:16:28;;;;;;;6.78;2.33;;;;;;;;;;6218497;28;20233;-69
2022/06/10 08:19:49;;;;;;;8.52;1.95;;;;;;;;;;6216557;28;20225;-67
2022/06/10 08:23:10;;;;;;;4.93;1.70;;;;;;;;;;6214096;28;20545;-70
2022/06/10 08:26:31;;;;;;;8.68;2.05;;;;;;;;;;6208968;28;20361;-68
2022/06/10 08:29:52;;;;;;;3.35;1.83;;;;;;;;;;6213545;28;20283;-70
2022/06/10 08:33:15;;;;;;;5.45;1.98;;;;;;;;;;6221209;28;20236;-67
2022/06/10 08:36:37;;;;;;;3.88;1.90;;;;;;;;;;6224889;28;20319;-67
2022/06/10 08:39:57;;;;;;;3.55;1.60;;;;;;;;;;6219683;28;20316;-68
2022/06/10 08:43:22;;;;;;;7.50;2.10;;;;;;;;;;6225091;28;20252;-69
2022/06/10 08:47:00;;;;;;;3.83;2.08;;;;;;;;;;6216945;28;20221;-68
2022/06/10 08:50:30;;;;;;;7.43;2.13;;;;;;;;;;6184093;28;20224;-68
2022/06/10 08:54:05;;;;;;;4.85;2.38;;;;;;;;;;6220589;28;20240;-68
2022/06/10 08:57:30;;;;;;;4.95;2.33;;;;;;;;;;6207090;28;20233;-67
2022/06/10 09:00:52;;;;;;;5.60;2.47;;;;;;;;;;6201963;28;20237;-66
2022/06/10 09:04:19;;;;;;;7.18;3.38;;;;;;;;;;6215867;28;20236;-69
2022/06/10 09:07:46;;;;;;;6.22;3.22;;;;;;;;;;6220885;28;20232;-68
2022/06/10 09:11:09;;;;;;;6.32;2.65;;;;;;;;;;6218945;28;20221;-68
2022/06/10 09:14:30;;;;;;;11.82;4.28;;;;;;;;;;6226871;28;20236;-68
2022/06/10 09:17:53;;;;;;;6.30;3.38;;;;;;;;;;6216323;28;20232;-66
2022/06/10 09:21:17;;;;;;;5.70;2.88;;;;;;;;;;6220599;28;20232;-67
2022/06/10 09:24:42;;;;;;;8.25;2.97;;;;;;;;;;6218943;28;20953;-67
2022/06/10 09:28:03;;;;;;;8.15;2.97;;;;;;;;;;6217731;28;20630;-67
2022/06/10 09:31:29;;;;;;;6.03;2.80;;;;;;;;;;6223389;28;20236;-67
2022/06/10 09:34:53;;;;;;;9.50;4.65;;;;;;;;;;6224467;28;20252;-66
2022/06/10 09:38:18;;;;;;;3.65;2.03;;;;;;;;;;6222414;28;20232;-69
2022/06/10 09:41:45;;;;;;;5.53;2.65;;;;;;;;;;6224706;28;20224;-68
2022/06/10 09:45:09;;;;;;;5.57;2.63;;;;;;;;;;6225639;28;20228;-68
2022/06/10 09:48:38;;;;;;;7.05;2.88;;;;;;;;;;6221150;28;20224;-69
2022/06/10 09:52:03;;;;;;;4.82;2.70;;;;;;;;;;6226980;28;20225;-69
2022/06/10 09:55:28;;;;;;;5.40;2.25;;;;;;;;;;6228248;28;20327;-67
2022/06/10 09:58:58;;;;;;;4.43;2.50;;;;;;;;;;6218599;28;20359;-67
2022/06/10 10:02:29;;;;;;;6.40;3.42;;;;;;;;;;6226739;28;20224;-67
2022/06/10 10:05:58;;;;;;;9.02;3.75;;;;;;;;;;6220465;28;20232;-68
2022/06/10 10:09:23;;;;;;;5.50;2.75;;;;;;;;;;6223432;28;20232;-70
2022/06/10 10:12:46;;;;;;;5.38;3.00;;;;;;;;;;6214784;28;20232;-67
2022/06/10 10:16:18;;;;;;;6.43;3.13;;;;;;;;;;6222625;28;20603;-68
2022/06/10 10:19:47;;;;;;;7.13;2.95;;;;;;;;;;6214481;28;20717;-68
2022/06/10 10:23:11;;;;;;;5.47;2.88;;;;;;;;;;6221325;28;20228;-68
2022/06/10 10:26:34;;;;;;;4.88;2.47;;;;;;;;;;6221347;28;20316;-68
2022/06/10 10:29:57;;;;;;;6.30;2.47;;;;;;;;;;6230361;28;20256;-68
2022/06/10 10:33:19;;;;;;;7.28;3.05;;;;;;;;;;6225895;28;20232;-69
2022/06/10 10:36:47;;;;;;;4.20;3.13;;;;;;;;;;6213717;28;20851;-69
2022/06/10 10:40:15;;;;;;;5.75;2.63;;;;;;;;;;6212330;28;20608;-68
2022/06/10 10:43:36;;;;;;;4.50;3.15;;;;;;;;;;6221053;28;20228;-69
2022/06/10 10:46:58;;;;;;;5.13;2.47;;;;;;;;;;6228212;28;20843;-69
2022/06/10 10:50:22;;;;;;;6.22;2.55;;;;;;;;;;6220502;28;20498;-67
2022/06/10 10:53:43;;;;;;;6.82;3.22;;;;;;;;;;6212254;28;20236;-67
2022/06/10 10:57:14;;;;;;;8.88;2.80;;;;;;;;;;6205350;28;20229;-69
2022/06/10 11:00:39;;;;;;;6.32;2.03;;;;;;;;;;6220860;28;20738;-70
2022/06/10 11:04:00;;;;;;;6.32;2.47;;;;;;;;;;6220100;28;20229;-70
2022/06/10 11:07:22;;;;;;;5.78;2.15;;;;;;;;;;6226790;28;20240;-70
2022/06/10 11:10:50;;;;;;;5.47;1.75;;;;;;;;;;6224845;28;20240;-69
2022/06/10 11:14:18;;;;;;;7.97;2.53;;;;;;;;;;6221181;28;20311;-70
2022/06/10 11:17:42;;;;;;;11.98;2.88;;;;;;;;;;6227346;28;20621;-70
2022/06/10 11:21:03;;;;;;;5.88;2.08;;;;;;;;;;6223760;28;20228;-70
2022/06/10 11:24:27;;;;;;;8.15;2.40;;;;;;;;;;6221710;28;21890;-70
2022/06/10 11:27:58;;;;;;;7.60;2.33;;;;;;;;;;6222642;28;20332;-70
2022/06/10 11:31:19;;;;;;;4.13;2.30;;;;;;;;;;6223234;28;20228;-70
2022/06/10 11:34:41;;;;;;;5.00;2.40;;;;;;;;;;6224821;28;20233;-70
2022/06/10 11:38:03;;;;;;;2.92;1.73;;;;;;;;;;6225162;28;20303;-70
2022/06/10 11:41:30;;;;;;;6.50;2.58;;;;;;;;;;6225098;28;20273;-69
2022/06/10 11:44:54;;;;;;;3.60;2.58;;;;;;;;;;6225731;28;20225;-69
2022/06/10 11:48:17;;;;;;;6.20;2.92;;;;;;;;;;6210082;28;20851;-71
2022/06/10 11:51:40;;;;;;;7.20;3.45;;;;;;;;;;6223277;28;20240;-71
2022/06/10 11:55:05;;;;;;;6.18;2.42;;;;;;;;;;6221586;28;20225;-71
2022/06/10 12:02:10;;;;;;;3.92;2.20;;;;;;;;;;6223961;28;20299;-70
2022/06/10 12:05:40;;;;;;;3.85;2.13;;;;;;;;;;6219492;28;20654;-69
2022/06/10 12:09:02;;;;;;;6.57;2.45;;;;;;;;;;6217980;28;20243;-71
2022/06/10 12:12:25;;;;;;;4.10;1.77;;;;;;;;;;6215144;28;20236;-73
2022/06/10 12:15:51;;;;;;;5.78;2.53;;;;;;;;;;6220542;28;20315;-73
2022/06/10 12:19:13;;;;;;;5.10;2.17;;;;;;;;;;6217748;28;20272;-72
2022/06/10 12:22:34;;;;;;;4.43;2.05;;;;;;;;;;6221340;28;20606;-73
2022/06/10 12:25:58;;;;;;;6.40;1.98;;;;;;;;;;6226760;28;20667;-73
2022/06/10 12:29:21;;;;;;;6.28;2.30;;;;;;;;;;6223877;28;20751;-73
2022/06/10 12:32:47;;;;;;;2.97;2.33;;;;;;;;;;6219204;28;20226;-72
2022/06/10 12:36:13;;;;;;;4.53;2.42;;;;;;;;;;6219299;28;20236;-72
2022/06/10 12:39:40;;;;;;;8.43;2.65;;;;;;;;;;6222062;28;20617;-73
2022/06/10 12:43:04;;;;;;;3.45;2.38;;;;;;;;;;6217147;28;20237;-71
2022/06/10 12:46:34;;;;;;;5.47;2.90;;;;;;;;;;6217549;28;20241;-72
2022/06/10 12:50:00;;;;;;;7.80;2.83;;;;;;;;;;6223755;28;20597;-73
2022/06/10 12:53:26;;;;;;;5.35;2.90;;;;;;;;;;6224310;28;20617;-73
2022/06/10 12:56:47;;;;;;;5.95;3.47;;;;;;;;;;6210435;28;20319;-73
2022/06/10 13:00:25;;;;;;;7.05;4.03;;;;;;;;;;6197834;28;20224;-73
2022/06/10 13:03:46;;;;;;;5.70;3.33;;;;;;;;;;6229175;28;20236;-71
2022/06/10 13:07:25;;;;;;;7.05;4.03;;;;;;;;;;6222724;28;20221;-72
2022/06/10 13:10:46;;;;;;;7.85;3.03;;;;;;;;;;6212936;28;20212;-73
2022/06/10 13:14:18;;;;;;;6.82;3.15;;;;;;;;;;6227849;28;20252;-73
2022/06/10 13:17:51;;;;;;;5.22;2.10;;;;;;;;;;6224634;28;20225;-73
2022/06/10 13:21:14;;;;;;;5.85;2.33;;;;;;;;;;6227630;28;20229;-72
2022/06/10 13:24:36;;;;;;;5.32;2.10;;;;;;;;;;6227149;28;20622;-73
2022/06/10 13:27:56;;;;;;;9.88;2.88;;;;;;;;;;6231724;28;20228;-72
2022/06/10 13:31:19;;;;;;;5.00;1.90;;;;;;;;;;6236981;28;20221;-72
2022/06/10 13:34:39;;;;;;;2.85;1.80;;;;;;;;;;6224035;28;22460;-72
2022/06/10 13:38:02;;;;;;;2.60;1.98;;;;;;;;;;6219329;28;20228;-72
2022/06/10 13:45:15;;;;;;;2.55;2.08;;;;;;;;;;6234361;28;20232;-72
2022/06/10 13:48:36;;;;;;;3.60;1.90;;;;;;;;;;6223983;28;20232;-73
2022/06/10 13:51:57;;;;;;;4.55;2.10;;;;;;;;;;6230637;28;20241;-73
2022/06/10 13:55:21;;;;;;;6.68;2.55;;;;;;;;;;6229963;28;20228;-72
2022/06/10 13:58:51;;;;;;;4.07;2.30;;;;;;;;;;6228840;28;20797;-72
2022/06/10 14:02:14;;;;;;;4.47;1.90;;;;;;;;;;6230035;28;20613;-73
2022/06/10 14:05:35;;;;;;;3.25;1.90;;;;;;;;;;6235214;28;20232;-73
2022/06/10 14:08:57;;;;;;;4.68;2.03;;;;;;;;;;6226817;28;20247;-73
2022/06/10 14:12:19;;;;;;;3.40;1.77;;;;;;;;;;6222724;28;20493;-73
2022/06/10 14:15:48;;;;;;;2.47;1.33;;;;;;;;;;6228966;28;20605;-72
2022/06/10 14:19:12;;;;;;;5.13;1.55;;;;;;;;;;6203140;28;20255;-72
2022/06/10 14:22:33;;;;;;;4.38;1.52;;;;;;;;;;6233846;28;20244;-73
2022/06/10 14:26:01;;;;;;;5.18;2.17;;;;;;;;;;6225564;28;20650;-73
2022/06/10 14:29:24;;;;;;;3.22;1.95;;;;;;;;;;6224291;28;20887;-72
2022/06/10 14:32:57;;;;;;;7.05;3.05;;;;;;;;;;6219606;28;20773;-72
2022/06/10 14:36:19;;;;;;;3.53;2.42;;;;;;;;;;6224353;28;20315;-72
2022/06/10 14:39:39;;;;;;;3.60;2.08;;;;;;;;;;6226659;28;20240;-73
2022/06/10 14:43:02;;;;;;;4.55;2.80;;;;;;;;;;6222259;28;20224;-73
2022/06/10 14:46:23;;;;;;;4.00;1.95;;;;;;;;;;6232979;28;20733;-73
2022/06/10 14:49:46;;;;;;;5.53;4.55;;;;;;;;;;6208730;28;20503;-73
2022/06/10 14:53:14;;;;;;;3.28;2.10;;;;;;;;;;6225503;28;20241;-74
2022/06/10 14:56:36;;;;;;;2.40;2.13;;;;;;;;;;6219544;28;20630;-73
2022/06/10 14:59:57;;;;;;;3.45;2.17;;;;;;;;;;6227510;28;20236;-73
2022/06/10 15:03:19;;;;;;;5.30;2.30;;;;;;;;;;6224138;28;20233;-73
2022/06/10 15:06:42;;;;;;;4.38;2.95;;;;;;;;;;6222087;28;20229;-72
2022/06/10 15:10:05;;;;;;;4.55;2.50;;;;;;;;;;6222982;28;20232;-73
2022/06/10 15:13:29;;;;;;;2.78;2.58;;;;;;;;;;6228425;28;20967;-73
2022/06/10 15:16:50;;;;;;;3.78;2.30;;;;;;;;;;6230369;28;20260;-73
2022/06/10 15:20:11;;;;;;;5.00;2.60;;;;;;;;;;6228604;28;20237;-72
2022/06/10 15:23:33;;;;;;;4.40;2.53;;;;;;;;;;6233520;28;20228;-73
2022/06/10 15:26:54;;;;;;;2.67;2.05;;;;;;;;;;6223383;28;20309;-71
2022/06/10 15:30:15;;;;;;;5.53;2.38;;;;;;;;;;6221963;28;20280;-73
2022/06/10 15:33:36;;;;;;;6.13;2.88;;;;;;;;;;6229569;28;20232;-72
2022/06/10 15:44:25;;;;;;;4.82;2.33;;;;;;;;;;6218192;28;20305;-72
2022/06/10 15:47:46;;;;;;;5.03;2.38;;;;;;;;;;6224632;28;20548;-73
2022/06/10 15:51:07;;;;;;;3.78;3.40;;;;;;;;;;6226137;28;20237;-72
2022/06/10 15:54:29;;;;;;;4.70;2.83;;;;;;;;;;6224906;28;20240;-74
2022/06/10 15:57:50;;;;;;;2.92;1.98;;;;;;;;;;6220169;28;20237;-73
2022/06/10 16:01:12;;;;;;;2.70;2.00;;;;;;;;;;6223219;28;20241;-72
2022/06/10 16:04:32;;;;;;;3.45;2.33;;;;;;;;;;6223633;28;20233;-72
2022/06/10 16:07:53;;;;;;;4.60;2.90;;;;;;;;;;6222261;28;20233;-72
2022/06/10 16:11:15;;;;;;;3.80;2.90;;;;;;;;;;6232237;28;20237;-72
2022/06/10 16:14:38;;;;;;;5.20;3.10;;;;;;;;;;6223900;28;20229;-72
2022/06/10 16:18:00;;;;;;;4.57;2.65;;;;;;;;;;6220080;28;20220;-73
2022/06/10 16:21:21;;;;;;;6.25;3.92;;;;;;;;;;6221624;28;20319;-74
2022/06/10 16:24:42;;;;;;;3.78;3.08;;;;;;;;;;6218239;28;20598;-73
2022/06/10 16:28:04;;;;;;;3.00;2.42;;;;;;;;;;6223299;28;20628;-72
2022/06/10 16:31:27;;;;;;;3.50;2.58;;;;;;;;;;6219513;28;20229;-72
2022/06/10 16:34:48;;;;;;;4.45;2.38;;;;;;;;;;6224644;28;20224;-73
2022/06/10 16:38:14;;;;;;;4.47;3.70;;;;;;;;;;6227496;28;20228;-72
2022/06/10 16:41:36;;;;;;;5.63;2.65;;;;;;;;;;6220197;28;20221;-73
2022/06/10 16:44:56;;;;;;;4.13;3.05;;;;;;;;;;6219020;28;20459;-73
2022/06/10 16:48:20;;;;;;;4.95;3.35;;;;;;;;;;6222289;28;20225;-73
2022/06/10 16:51:40;;;;;;;4.22;2.83;;;;;;;;;;6225605;28;20232;-73
2022/06/10 16:55:01;;;;;;;4.80;2.83;;;;;;;;;;6224232;28;20252;-74
2022/06/10 16:58:23;;;;;;;6.35;5.40;;;;;;;;;;6220611;28;20311;-73
2022/06/10 17:01:44;;;;;;;5.30;3.20;;;;;;;;;;6223713;28;20236;-71
2022/06/10 17:05:09;;;;;;;7.65;3.97;;;;;;;;;;6225378;28;20228;-72
2022/06/10 17:08:32;;;;;;;4.05;3.08;;;;;;;;;;6221642;28;20619;-73
2022/06/10 17:11:52;;;;;;;2.85;2.17;;;;;;;;;;6225984;28;20225;-72
2022/06/10 17:15:16;;;;;;;6.13;3.00;;;;;;;;;;6226652;28;20545;-73
2022/06/10 17:18:36;;;;;;;4.78;2.88;;;;;;;;;;6222168;28;20229;-73
2022/06/10 17:21:58;;;;;;;3.75;3.10;;;;;;;;;;6217533;28;20623;-72
2022/06/10 17:25:19;;;;;;;2.70;2.40;;;;;;;;;;6219360;28;20228;-71
2022/06/10 17:28:40;;;;;;;3.53;2.30;;;;;;;;;;6224505;28;20248;-73
2022/06/10 17:32:01;;;;;;;5.00;3.17;;;;;;;;;;6226714;28;20609;-72
2022/06/10 17:35:22;;;;;;;4.88;2.80;;;;;;;;;;6225098;28;20221;-72
2022/06/10 17:38:46;;;;;;;4.28;2.80;;;;;;;;;;6217644;28;20228;-72
2022/06/10 17:42:07;;;;;;;5.88;2.83;;;;;;;;;;6226220;28;20228;-71
2022/06/10 17:45:27;;;;;;;4.22;2.72;;;;;;;;;;6218684;28;20236;-72
2022/06/10 17:48:47;;;;;;;4.63;2.53;;;;;;;;;;6220770;28;20252;-71
2022/06/10 17:52:12;;;;;;;5.80;2.40;;;;;;;;;;6221326;28;20224;-72
2022/06/10 17:55:34;;;;;;;3.38;2.50;;;;;;;;;;6221703;28;20328;-72
2022/06/10 17:58:55;;;;;;;6.70;2.67;;;;;;;;;;6221467;28;20342;-71
2022/06/10 18:02:29;;;;;;;3.10;2.63;;;;;;;;;;6217114;28;20228;-72
2022/06/10 18:05:50;;;;;;;5.13;2.85;;;;;;;;;;6224541;28;20307;-71
2022/06/10 18:09:11;;;;;;;3.92;2.33;;;;;;;;;;6221447;28;20228;-71
2022/06/10 18:12:33;;;;;;;4.30;2.28;;;;;;;;;;6221796;28;20239;-72
2022/06/10 18:15:55;;;;;;;3.92;2.53;;;;;;;;;;6223419;28;20244;-72
2022/06/10 18:19:19;;;;;;;8.00;2.20;;;;;;;;;;6228617;28;20251;-72
2022/06/10 18:22:39;;;;;;;3.30;1.98;;;;;;;;;;6223063;28;20249;-72
2022/06/10 18:26:01;;;;;;;4.05;2.35;;;;;;;;;;6225104;28;20237;-72
2022/06/10 18:29:26;;;;;;;5.72;2.00;;;;;;;;;;6226152;28;20255;-71
2022/06/10 18:32:49;;;;;;;7.07;3.58;;;;;;;;;;6226252;28;20561;-72
2022/06/10 18:36:10;;;;;;;7.55;3.28;;;;;;;;;;6227842;28;20224;-71
2022/06/10 18:39:32;;;;;;;6.05;3.08;;;;;;;;;;6226928;28;20233;-72
2022/06/10 18:42:58;;;;;;;4.20;2.38;;;;;;;;;;6218377;28;20232;-73
2022/06/10 18:46:22;;;;;;;4.15;2.55;;;;;;;;;;6222539;28;20639;-73
2022/06/10 18:49:43;;;;;;;7.18;6.25;;;;;;;;;;6223449;28;20244;-72
2022/06/10 18:53:06;;;;;;;6.82;2.63;;;;;;;;;;6217991;28;20224;-71
2022/06/10 18:56:28;;;;;;;4.32;2.45;;;;;;;;;;6227040;28;20232;-72
2022/06/10 18:59:49;;;;;;;6.43;3.17;;;;;;;;;;6221108;28;20221;-72
2022/06/10 19:03:16;;;;;;;8.65;2.88;;;;;;;;;;6224527;28;20244;-72
2022/06/10 19:06:37;;;;;;;3.05;1.95;;;;;;;;;;6228670;28;20223;-72
2022/06/10 19:09:58;;;;;;;21.25;19.20;;;;;;;;;;6221651;28;20229;-72
2022/06/10 19:13:19;;;;;;;7.50;4.15;;;;;;;;;;6228714;28;20228;-71
2022/06/10 19:16:41;;;;;;;7.00;4.20;;;;;;;;;;6227892;28;20319;-72
2022/06/10 19:20:05;;;;;;;5.32;3.17;;;;;;;;;;6226291;28;20276;-71
2022/06/10 19:23:27;;;;;;;6.78;2.78;;;;;;;;;;6224526;28;20236;-72
2022/06/10 19:26:48;;;;;;;4.07;3.40;;;;;;;;;;6228762;28;22030;-72
2022/06/10 19:30:10;;;;;;;5.85;3.95;;;;;;;;;;6224247;28;20232;-72
2022/06/10 19:33:32;;;;;;;7.38;4.45;;;;;;;;;;6223691;28;20240;-72
2022/06/10 19:36:57;;;;;;;4.78;3.15;;;;;;;;;;6225866;28;20311;-72
2022/06/10 19:40:20;;;;;;;7.45;3.53;;;;;;;;;;6209213;28;20220;-73
2022/06/10 19:47:20;;;;;;;6.95;3.30;;;;;;;;;;6223700;28;20220;-72
2022/06/10 19:50:43;;;;;;;4.65;2.67;;;;;;;;;;6225589;28;20228;-72
2022/06/10 19:54:06;;;;;;;4.22;3.10;;;;;;;;;;6217246;28;20236;-71
2022/06/10 19:57:28;;;;;;;5.68;3.03;;;;;;;;;;6224530;28;20266;-72
2022/06/10 20:00:49;;;;;;;7.53;2.97;;;;;;;;;;6219406;28;21848;-72
2022/06/10 20:04:13;;;;;;;7.53;3.75;;;;;;;;;;6222028;28;20359;-72
2022/06/10 20:07:34;;;;;;;5.63;3.00;;;;;;;;;;6222080;28;20233;-72
2022/06/10 20:10:56;;;;;;;4.32;3.55;;;;;;;;;;6225790;28;20229;-73
2022/06/10 20:14:17;;;;;;;5.10;3.05;;;;;;;;;;6222588;28;20225;-72
2022/06/10 20:17:38;;;;;;;5.30;2.85;;;;;;;;;;6221618;28;20232;-72
2022/06/10 20:20:59;;;;;;;6.95;3.63;;;;;;;;;;6224507;28;20232;-72
2022/06/10 20:24:20;;;;;;;4.60;3.28;;;;;;;;;;6222526;28;20236;-73
2022/06/10 20:27:42;;;;;;;5.07;3.47;;;;;;;;;;6222011;28;20237;-72
2022/06/10 20:31:08;;;;;;;6.47;3.75;;;;;;;;;;6222326;28;20556;-72
2022/06/10 20:34:32;;;;;;;4.85;3.53;;;;;;;;;;6206707;28;20737;-72
2022/06/10 20:37:53;;;;;;;5.13;4.25;;;;;;;;;;6221257;28;20228;-71
2022/06/10 20:41:14;;;;;;;4.05;2.97;;;;;;;;;;6224607;28;20294;-71